createdAt,value
2023-03-25T00:01:37.687Z,97570.69
2023-03-25T00:03:42.951Z,97561.22
2023-03-25T00:05:46.306Z,97571.41
2023-03-25T00:07:51.025Z,97567.84
2023-03-25T00:09:55.773Z,97563.00
2023-03-25T00:11:58.862Z,97566.56
2023-03-25T00:14:02.108Z,97571.19
2023-03-25T00:16:07.190Z,97577.81
2023-03-25T00:18:10.473Z,97573.28
2023-03-25T00:20:14.219Z,97556.34
2023-03-25T00:22:17.939Z,97558.75
2023-03-25T00:24:21.340Z,97554.94
2023-03-25T00:26:29.998Z,97548.91
2023-03-25T00:28:35.868Z,97551.75
2023-03-25T00:30:39.558Z,97544.84
2023-03-25T00:32:46.266Z,97549.72
2023-03-25T00:34:49.798Z,97555.28
2023-03-25T00:36:52.914Z,97546.75
2023-03-25T00:38:56.008Z,97563.00
2023-03-25T00:40:59.106Z,97551.50
2023-03-25T00:43:05.481Z,97559.66
2023-03-25T00:45:09.550Z,97560.75
2023-03-25T00:47:18.331Z,97569.38
2023-03-25T00:49:25.079Z,97555.88
2023-03-25T00:51:31.306Z,97564.88
2023-03-25T00:53:35.359Z,97566.91
2023-03-25T00:55:38.857Z,97560.75
2023-03-25T00:57:42.128Z,97556.59
2023-03-25T00:59:46.630Z,97557.50
2023-03-25T01:01:53.458Z,97550.91
2023-03-25T01:03:58.854Z,97550.44
2023-03-25T01:06:03.310Z,97550.78
2023-03-25T01:08:06.623Z,97550.41
2023-03-25T01:10:11.699Z,97547.78
2023-03-25T01:12:14.891Z,97542.56
2023-03-25T01:14:19.689Z,97534.06
2023-03-25T01:16:24.603Z,97527.16
2023-03-25T01:18:27.797Z,97524.56
2023-03-25T01:20:30.985Z,97521.25
2023-03-25T01:22:34.144Z,97512.63
2023-03-25T01:24:37.265Z,97520.56
2023-03-25T01:26:43.765Z,97523.16
2023-03-25T01:28:47.051Z,97514.59
2023-03-25T01:30:50.307Z,97511.66
2023-03-25T01:32:54.902Z,97516.75
2023-03-25T01:34:58.283Z,97512.50
2023-03-25T01:37:01.538Z,97509.91
2023-03-25T01:39:06.064Z,97507.53
2023-03-25T01:41:09.734Z,97502.66
2023-03-25T01:43:13.681Z,97502.53
2023-03-25T01:45:24.495Z,97495.19
2023-03-25T01:47:27.780Z,97499.44
2023-03-25T01:49:38.906Z,97485.81
2023-03-25T01:51:45.593Z,97474.69
2023-03-25T01:53:49.329Z,97483.34
2023-03-25T01:55:54.670Z,97476.34
2023-03-25T01:57:59.861Z,97481.88
2023-03-25T02:00:08.660Z,97472.97
2023-03-25T02:02:18.876Z,97481.13
2023-03-25T02:04:27.257Z,97480.28
2023-03-25T02:06:35.820Z,97475.44
2023-03-25T02:08:41.625Z,97480.75
2023-03-25T02:10:47.561Z,97474.72
2023-03-25T02:12:50.884Z,97471.28
2023-03-25T02:14:53.142Z,97464.75
2023-03-25T02:17:02.841Z,97461.69
2023-03-25T02:19:28.062Z,97455.16
2023-03-25T02:22:20.816Z,97450.69
2023-03-25T02:24:53.917Z,97446.53
2023-03-25T02:27:17.388Z,97456.69
2023-03-25T02:29:24.890Z,97453.13
2023-03-25T02:31:44.550Z,97447.78
2023-03-25T02:33:59.612Z,97448.41
2023-03-25T02:36:23.223Z,97447.44
2023-03-25T02:38:33.678Z,97442.88
2023-03-25T02:40:39.840Z,97447.09
2023-03-25T02:42:48.413Z,97455.88
2023-03-25T02:44:58.090Z,97472.56
2023-03-25T02:47:03.393Z,97489.50
2023-03-25T02:49:10.076Z,97502.78
2023-03-25T02:51:16.677Z,97529.16
2023-03-25T02:53:23.738Z,97553.09
2023-03-25T02:55:30.590Z,97555.00
2023-03-25T02:57:35.869Z,97567.28
2023-03-25T02:59:40.061Z,97576.47
2023-03-25T03:01:44.509Z,97563.78
2023-03-25T03:03:47.755Z,97561.25
2023-03-25T03:05:52.502Z,97555.41
2023-03-25T03:08:04.942Z,97544.88
2023-03-25T03:10:13.463Z,97538.47
2023-03-25T03:12:27.592Z,97546.63
2023-03-25T03:14:39.138Z,97534.03
2023-03-25T03:16:50.085Z,97520.22
2023-03-25T03:19:02.275Z,97514.16
2023-03-25T03:21:11.257Z,97515.72
2023-03-25T03:23:18.135Z,97516.88
2023-03-25T03:25:25.000Z,97511.78
2023-03-25T03:27:33.959Z,97512.41
2023-03-25T03:29:38.520Z,97512.53
2023-03-25T03:31:47.540Z,97499.63
2023-03-25T03:34:14.764Z,97510.03
2023-03-25T03:36:20.406Z,97523.84
2023-03-25T03:38:24.332Z,97521.38
2023-03-25T03:40:29.601Z,97516.72
2023-03-25T03:42:37.237Z,97515.16
2023-03-25T03:44:41.084Z,97533.38
2023-03-25T03:46:47.402Z,97531.72
2023-03-25T03:48:53.197Z,97532.53
2023-03-25T03:50:58.428Z,97526.41
2023-03-25T03:53:07.119Z,97536.28
2023-03-25T03:55:14.117Z,97542.34
2023-03-25T03:57:22.207Z,97547.94
2023-03-25T03:59:30.541Z,97554.47
2023-03-25T04:01:36.499Z,97559.34
2023-03-25T04:03:42.053Z,97565.16
2023-03-25T04:05:48.585Z,97572.25
2023-03-25T04:07:56.941Z,97570.69
2023-03-25T04:10:04.893Z,97562.09
2023-03-25T04:12:11.723Z,97565.53
2023-03-25T04:14:15.334Z,97578.53
2023-03-25T04:16:19.773Z,97574.06
2023-03-25T04:18:23.478Z,97570.41
2023-03-25T04:20:29.842Z,97575.41
2023-03-25T04:22:33.057Z,97580.72
2023-03-25T04:24:37.649Z,97575.19
2023-03-25T04:26:42.304Z,97569.97
2023-03-25T04:28:45.832Z,97587.22
2023-03-25T04:30:50.361Z,97581.91
2023-03-25T04:32:54.843Z,97570.78
2023-03-25T04:34:58.219Z,97573.28
2023-03-25T04:37:02.229Z,97562.66
2023-03-25T04:39:05.710Z,97580.66
2023-03-25T04:41:09.423Z,97574.31
2023-03-25T04:43:12.533Z,97569.00
2023-03-25T04:45:16.938Z,97566.50
2023-03-25T04:47:22.711Z,97569.69
2023-03-25T04:49:27.218Z,97565.22
2023-03-25T04:51:30.540Z,97564.50
2023-03-25T04:53:33.847Z,97564.50
2023-03-25T04:55:36.901Z,97562.50
2023-03-25T04:57:39.906Z,97564.50
2023-03-25T04:59:43.112Z,97562.59
2023-03-25T05:01:46.911Z,97568.84
2023-03-25T05:03:50.917Z,97569.94
2023-03-25T05:05:56.458Z,97568.25
2023-03-25T05:07:59.654Z,97569.94
2023-03-25T05:10:02.819Z,97564.00
2023-03-25T05:12:06.288Z,97555.91
2023-03-25T05:14:10.080Z,97557.34
2023-03-25T05:16:13.504Z,97569.53
2023-03-25T05:18:17.795Z,97566.31
2023-03-25T05:20:22.510Z,97564.34
2023-03-25T05:22:27.009Z,97572.16
2023-03-25T05:24:30.561Z,97578.09
2023-03-25T05:26:35.304Z,97577.16
2023-03-25T05:28:38.472Z,97574.88
2023-03-25T05:30:42.301Z,97581.03
2023-03-25T05:32:50.789Z,97586.03
2023-03-25T05:34:59.857Z,97584.47
2023-03-25T05:37:03.012Z,97579.97
2023-03-25T05:39:08.893Z,97578.66
2023-03-25T05:41:16.840Z,97583.00
2023-03-25T05:43:22.823Z,97582.41
2023-03-25T05:45:26.025Z,97590.53
2023-03-25T05:47:29.245Z,97591.78
2023-03-25T05:49:32.361Z,97583.56
2023-03-25T05:51:37.644Z,97587.84
2023-03-25T05:53:40.969Z,97592.94
2023-03-25T05:55:47.475Z,97587.75
2023-03-25T05:57:51.022Z,97591.78
2023-03-25T05:59:54.126Z,97591.91
2023-03-25T06:01:57.547Z,97590.94
2023-03-25T06:04:02.609Z,97592.00
2023-03-25T06:06:13.895Z,97588.34
2023-03-25T06:08:17.215Z,97587.13
2023-03-25T06:10:21.393Z,97587.84
2023-03-25T06:12:27.679Z,97597.94
2023-03-25T06:14:30.864Z,97591.78
2023-03-25T06:16:35.483Z,97593.84
2023-03-25T06:18:38.753Z,97595.50
2023-03-25T06:20:41.914Z,97609.13
2023-03-25T06:22:46.352Z,97609.66
2023-03-25T06:24:49.722Z,97622.00
2023-03-25T06:26:53.147Z,97617.63
2023-03-25T06:28:58.460Z,97614.69
2023-03-25T06:31:07.266Z,97623.38
2023-03-25T06:33:10.765Z,97622.94
2023-03-25T06:35:18.256Z,97628.38
2023-03-25T06:37:21.842Z,97626.53
2023-03-25T06:39:25.138Z,97624.03
2023-03-25T06:41:31.302Z,97626.53
2023-03-25T06:44:01.633Z,97631.19
2023-03-25T06:46:22.715Z,97621.31
2023-03-25T06:48:51.924Z,97632.75
2023-03-25T06:50:55.278Z,97619.84
2023-03-25T06:52:58.420Z,97625.44
2023-03-25T06:55:01.712Z,97616.53
2023-03-25T06:57:05.110Z,97621.75
2023-03-25T06:59:09.571Z,97624.63
2023-03-25T07:01:12.796Z,97622.53
2023-03-25T07:03:15.934Z,97630.22
2023-03-25T07:05:19.087Z,97623.97
2023-03-25T07:07:22.148Z,97619.59
2023-03-25T07:09:25.310Z,97623.16
2023-03-25T07:11:30.487Z,97626.69
2023-03-25T07:13:33.556Z,97627.72
2023-03-25T07:15:37.997Z,97623.97
2023-03-25T07:17:43.016Z,97631.34
2023-03-25T07:19:46.411Z,97617.72
2023-03-25T07:21:49.408Z,97631.78
2023-03-25T07:23:53.012Z,97619.81
2023-03-25T07:25:56.926Z,97631.56
2023-03-25T07:28:00.058Z,97627.16
2023-03-25T07:30:04.732Z,97628.00
2023-03-25T07:32:09.258Z,97628.63
2023-03-25T07:34:12.349Z,97628.63
2023-03-25T07:36:15.568Z,97625.41
2023-03-25T07:38:19.497Z,97622.44
2023-03-25T07:40:22.622Z,97621.72
2023-03-25T07:42:25.693Z,97627.16
2023-03-25T07:44:48.882Z,97627.84
2023-03-25T07:46:51.982Z,97625.75
2023-03-25T07:48:56.565Z,97624.38
2023-03-25T07:50:59.727Z,97631.75
2023-03-25T07:53:02.788Z,97614.03
2023-03-25T07:55:06.702Z,97630.47
2023-03-25T07:57:09.887Z,97624.22
2023-03-25T07:59:12.951Z,97627.97
2023-03-25T08:01:16.143Z,97629.53
2023-03-25T08:03:19.443Z,97618.78
2023-03-25T08:05:24.855Z,97625.25
2023-03-25T08:07:29.071Z,97620.59
2023-03-25T08:09:34.641Z,97623.66
2023-03-25T08:11:37.827Z,97620.38
2023-03-25T08:13:41.262Z,97622.50
2023-03-25T08:15:44.371Z,97620.13
2023-03-25T08:17:47.868Z,97616.81
2023-03-25T08:19:51.105Z,97614.41
2023-03-25T08:21:56.042Z,97614.91
2023-03-25T08:24:02.136Z,97615.81
2023-03-25T08:26:05.977Z,97618.78
2023-03-25T08:28:09.202Z,97622.34
2023-03-25T08:30:13.534Z,97621.75
2023-03-25T08:32:16.602Z,97610.41
2023-03-25T08:34:20.355Z,97609.94
2023-03-25T08:36:23.525Z,97615.16
2023-03-25T08:38:33.074Z,97623.56
2023-03-25T08:40:37.989Z,97611.44
2023-03-25T08:42:41.152Z,97621.66
2023-03-25T08:44:44.711Z,97608.63
2023-03-25T08:46:47.839Z,97614.91
2023-03-25T08:48:51.102Z,97604.47
2023-03-25T08:50:54.416Z,97611.81
2023-03-25T08:52:58.773Z,97604.44
2023-03-25T08:55:03.226Z,97606.81
2023-03-25T08:57:06.361Z,97605.00
2023-03-25T08:59:09.527Z,97611.81
2023-03-25T09:01:13.144Z,97601.25
2023-03-25T09:03:16.483Z,97596.25
2023-03-25T09:05:20.129Z,97591.47
2023-03-25T09:07:23.404Z,97593.13
2023-03-25T09:09:26.668Z,97576.19
2023-03-25T09:11:36.740Z,97576.31
2023-03-25T09:13:40.459Z,97581.00
2023-03-25T09:15:44.632Z,97586.22
2023-03-25T09:17:48.014Z,97586.84
2023-03-25T09:19:52.863Z,97583.84
2023-03-25T09:21:57.126Z,97590.00
2023-03-25T09:24:00.327Z,97590.00
2023-03-25T09:26:05.270Z,97593.63
2023-03-25T09:28:09.930Z,97608.28
2023-03-25T09:30:13.870Z,97605.91
2023-03-25T09:32:18.639Z,97610.53
2023-03-25T09:34:21.922Z,97611.53
2023-03-25T09:36:24.999Z,97612.72
2023-03-25T09:38:28.017Z,97612.03
2023-03-25T09:40:31.880Z,97624.47
2023-03-25T09:42:41.353Z,97616.88
2023-03-25T09:44:56.602Z,97610.78
2023-03-25T09:47:02.060Z,97617.88
2023-03-25T09:49:05.590Z,97617.28
2023-03-25T09:51:14.080Z,97619.00
2023-03-25T09:53:26.662Z,97622.47
2023-03-25T09:55:32.083Z,97632.25
2023-03-25T09:57:42.092Z,97638.28
2023-03-25T09:59:49.609Z,97637.47
2023-03-25T10:02:00.463Z,97640.66
2023-03-25T10:04:24.562Z,97636.97
2023-03-25T10:06:27.742Z,97644.47
2023-03-25T10:08:38.049Z,97631.72
2023-03-25T10:10:44.886Z,97631.63
2023-03-25T10:12:54.100Z,97619.63
2023-03-25T10:15:06.365Z,97614.19
2023-03-25T10:17:16.435Z,97622.25
2023-03-25T10:19:30.370Z,97610.50
2023-03-25T10:21:39.457Z,97609.16
2023-03-25T10:23:44.324Z,97606.09
2023-03-25T10:25:51.177Z,97604.81
2023-03-25T10:27:54.774Z,97622.03
2023-03-25T10:30:04.646Z,97627.25
2023-03-25T10:32:13.824Z,97623.94
2023-03-25T10:34:19.388Z,97610.03
2023-03-25T10:36:32.058Z,97608.03
2023-03-25T10:38:37.107Z,97613.97
2023-03-25T10:40:44.754Z,97607.56
2023-03-25T10:42:57.330Z,97610.28
2023-03-25T10:45:00.397Z,97610.53
2023-03-25T10:47:08.121Z,97604.75
2023-03-25T10:49:12.537Z,97599.63
2023-03-25T10:51:17.606Z,97611.72
2023-03-25T10:53:24.348Z,97616.81
2023-03-25T10:55:30.342Z,97609.72
2023-03-25T10:57:33.841Z,97604.72
2023-03-25T10:59:39.437Z,97605.91
2023-03-25T11:01:43.811Z,97608.03
2023-03-25T11:03:52.127Z,97618.69
2023-03-25T11:05:55.354Z,97619.75
2023-03-25T11:08:08.767Z,97625.69
2023-03-25T11:10:20.849Z,97631.63
2023-03-25T11:12:36.699Z,97637.06
2023-03-25T11:14:45.867Z,97632.22
2023-03-25T11:16:52.873Z,97623.69
2023-03-25T11:18:57.584Z,97626.38
2023-03-25T11:21:04.167Z,97627.69
2023-03-25T11:23:08.827Z,97632.03
2023-03-25T11:25:17.967Z,97625.34
2023-03-25T11:27:24.055Z,97623.63
2023-03-25T11:29:27.987Z,97631.72
2023-03-25T11:31:35.924Z,97629.88
2023-03-25T11:33:39.756Z,97628.53
2023-03-25T11:35:46.938Z,97617.25
2023-03-25T11:37:55.986Z,97616.75
2023-03-25T11:40:06.557Z,97613.16
2023-03-25T11:42:19.021Z,97609.47
2023-03-25T11:44:24.152Z,97605.91
2023-03-25T11:46:27.361Z,97606.28
2023-03-25T11:48:32.999Z,97602.25
2023-03-25T11:50:36.339Z,97606.91
2023-03-25T11:52:42.287Z,97597.53
2023-03-25T11:54:45.926Z,97597.16
2023-03-25T11:56:50.678Z,97587.00
2023-03-25T11:58:58.980Z,97599.44
2023-03-25T12:01:03.912Z,97586.28
2023-03-25T12:03:11.092Z,97588.66
2023-03-25T12:05:16.599Z,97586.09
2023-03-25T12:07:21.566Z,97595.66
2023-03-25T12:09:28.451Z,97582.47
2023-03-25T12:11:40.250Z,97585.34
2023-03-25T12:14:08.874Z,97569.13
2023-03-25T12:16:21.796Z,97576.03
2023-03-25T12:18:41.854Z,97580.34
2023-03-25T12:20:54.580Z,97581.72
2023-03-25T12:23:03.428Z,97558.84
2023-03-25T12:25:16.283Z,97569.47
2023-03-25T12:27:31.105Z,97567.25
2023-03-25T12:29:39.663Z,97564.66
2023-03-25T12:31:50.856Z,97560.28
2023-03-25T12:34:02.228Z,97561.28
2023-03-25T12:36:19.440Z,97558.78
2023-03-25T12:38:32.687Z,97552.69
2023-03-25T12:40:51.997Z,97559.59
2023-03-25T12:43:02.079Z,97567.31
2023-03-25T12:45:24.469Z,97576.94
2023-03-25T12:47:30.525Z,97568.75
2023-03-25T12:49:46.179Z,97550.91
2023-03-25T12:51:55.207Z,97559.84
2023-03-25T12:54:07.493Z,97553.25
2023-03-25T12:56:28.000Z,97554.03
2023-03-25T12:58:45.058Z,97578.16
2023-03-25T13:00:51.859Z,97575.28
2023-03-25T13:03:12.653Z,97594.63
2023-03-25T13:05:19.426Z,97604.72
2023-03-25T13:07:24.043Z,97592.72
2023-03-25T13:09:29.360Z,97579.81
2023-03-25T13:11:38.202Z,97600.56
2023-03-25T13:13:42.741Z,97580.16
2023-03-25T13:15:48.328Z,97584.84
2023-03-25T13:17:56.927Z,97585.09
2023-03-25T13:20:02.274Z,97592.84
2023-03-25T13:22:08.704Z,97579.63
2023-03-25T13:24:14.353Z,97584.44
2023-03-25T13:26:19.544Z,97579.19
2023-03-25T13:28:27.126Z,97582.91
2023-03-25T13:30:32.630Z,97561.47
2023-03-25T13:32:40.217Z,97558.88
2023-03-25T13:34:47.539Z,97562.84
2023-03-25T13:36:59.968Z,97565.59
2023-03-25T13:39:07.779Z,97568.22
2023-03-25T13:41:13.595Z,97569.88
2023-03-25T13:43:27.364Z,97566.16
2023-03-25T13:45:33.883Z,97569.47
2023-03-25T13:47:41.354Z,97569.75
2023-03-25T13:49:48.251Z,97564.25
2023-03-25T13:51:51.533Z,97570.63
2023-03-25T13:53:58.874Z,97557.78
2023-03-25T13:56:41.545Z,97568.63
2023-03-25T13:59:03.984Z,97563.38
2023-03-25T14:01:32.461Z,97560.81
2023-03-25T14:04:05.712Z,97551.69
2023-03-25T14:06:21.735Z,97553.19
2023-03-25T14:08:54.162Z,97559.28
2023-03-25T14:11:12.072Z,97558.59
2023-03-25T14:13:17.517Z,97549.06
2023-03-25T14:15:23.995Z,97551.97
2023-03-25T14:17:28.175Z,97547.59
2023-03-25T14:19:32.876Z,97546.78
2023-03-25T14:21:42.818Z,97551.75
2023-03-25T14:23:45.914Z,97553.41
2023-03-25T14:25:51.585Z,97556.84
2023-03-25T14:27:55.728Z,97568.44
2023-03-25T14:30:00.265Z,97574.25
2023-03-25T14:32:07.844Z,97603.34
2023-03-25T14:34:24.519Z,97603.06
2023-03-25T14:36:30.093Z,97594.47
2023-03-25T14:38:51.375Z,97606.97
2023-03-25T14:41:03.455Z,97592.72
2023-03-25T14:43:20.652Z,97586.31
2023-03-25T14:45:59.178Z,97590.16
2023-03-25T14:48:19.485Z,97583.94
2023-03-25T14:50:34.664Z,97589.41
2023-03-25T14:52:40.554Z,97588.72
2023-03-25T14:54:43.900Z,97586.13
2023-03-25T14:56:54.072Z,97583.41
2023-03-25T14:58:59.594Z,97585.06
2023-03-25T15:01:05.434Z,97585.03
2023-03-25T15:03:13.620Z,97579.97
2023-03-25T15:05:19.654Z,97569.34
2023-03-25T15:07:42.909Z,97576.75
2023-03-25T15:09:48.752Z,97566.53
2023-03-25T15:11:59.523Z,97557.63
2023-03-25T15:14:05.277Z,97563.72
2023-03-25T15:16:19.522Z,97560.63
2023-03-25T15:18:56.007Z,97558.44
2023-03-25T15:21:05.545Z,97558.03
2023-03-25T15:23:33.283Z,97553.94
2023-03-25T15:25:37.587Z,97556.72
2023-03-25T15:28:00.569Z,97556.03
2023-03-25T15:30:11.971Z,97557.13
2023-03-25T15:32:30.790Z,97547.91
2023-03-25T15:34:45.836Z,97547.91
2023-03-25T15:37:05.881Z,97548.78
2023-03-25T15:39:35.704Z,97553.75
2023-03-25T15:42:12.254Z,97557.75
2023-03-25T15:44:34.968Z,97560.91
2023-03-25T15:46:56.060Z,97555.66
2023-03-25T15:49:17.558Z,97555.25
2023-03-25T15:51:34.684Z,97558.34
2023-03-25T15:53:52.041Z,97565.19
2023-03-25T15:55:56.382Z,97558.34
2023-03-25T15:58:02.232Z,97559.69
2023-03-25T16:00:13.593Z,97562.63
2023-03-25T16:02:26.541Z,97556.41
2023-03-25T16:04:35.479Z,97563.59
2023-03-25T16:06:42.151Z,97563.19
2023-03-25T16:08:48.223Z,97549.13
2023-03-25T16:10:51.373Z,97561.25
2023-03-25T16:12:54.989Z,97576.97
2023-03-25T16:14:59.995Z,97573.38
2023-03-25T16:17:06.511Z,97559.13
2023-03-25T16:19:12.781Z,97559.94
2023-03-25T16:21:16.364Z,97570.16
2023-03-25T16:23:21.594Z,97573.88
2023-03-25T16:25:29.991Z,97573.34
2023-03-25T16:27:36.831Z,97560.34
2023-03-25T16:29:41.320Z,97566.53
2023-03-25T16:31:53.707Z,97569.00
2023-03-25T16:34:00.263Z,97557.56
2023-03-25T16:36:05.271Z,97569.00
2023-03-25T16:38:08.796Z,97570.78
2023-03-25T16:40:16.270Z,97573.00
2023-03-25T16:42:25.988Z,97570.25
2023-03-25T16:44:29.132Z,97580.28
2023-03-25T16:46:33.077Z,97565.69
2023-03-25T16:48:37.480Z,97573.53
2023-03-25T16:50:40.849Z,97569.13
2023-03-25T16:52:44.099Z,97568.44
2023-03-25T16:54:49.218Z,97566.03
2023-03-25T16:56:52.853Z,97556.53
2023-03-25T16:59:00.319Z,97562.28
2023-03-25T17:01:11.662Z,97560.38
2023-03-25T17:03:17.767Z,97563.53
2023-03-25T17:05:22.753Z,97562.00
2023-03-25T17:07:27.700Z,97560.44
2023-03-25T17:09:35.050Z,97565.94
2023-03-25T17:11:38.163Z,97564.81
2023-03-25T17:13:43.901Z,97571.84
2023-03-25T17:15:49.397Z,97567.19
2023-03-25T17:17:56.648Z,97573.34
2023-03-25T17:20:05.809Z,97575.16
2023-03-25T17:22:17.129Z,97573.59
2023-03-25T17:24:24.099Z,97573.88
2023-03-25T17:26:29.654Z,97575.47
2023-03-25T17:28:38.041Z,97573.50
2023-03-25T17:30:42.985Z,97574.19
2023-03-25T17:32:47.894Z,97580.88
2023-03-25T17:34:59.345Z,97571.31
2023-03-25T17:37:04.137Z,97570.19
2023-03-25T17:39:16.762Z,97570.13
2023-03-25T17:41:21.060Z,97570.63
2023-03-25T17:43:26.156Z,97565.63
2023-03-25T17:45:29.326Z,97576.22
2023-03-25T17:47:32.471Z,97578.22
2023-03-25T17:49:37.011Z,97569.44
2023-03-25T17:51:41.081Z,97569.94
2023-03-25T17:53:44.158Z,97576.22
2023-03-25T17:55:48.281Z,97581.34
2023-03-25T17:57:51.366Z,97583.50
2023-03-25T17:59:55.737Z,97577.56
2023-03-25T18:01:59.050Z,97573.28
2023-03-25T18:04:02.540Z,97580.56
2023-03-25T18:06:08.019Z,97575.47
2023-03-25T18:08:13.646Z,97580.00
2023-03-25T18:10:19.422Z,97588.75
2023-03-25T18:12:22.573Z,97589.34
2023-03-25T18:14:26.021Z,97592.81
2023-03-25T18:16:29.111Z,97598.59
2023-03-25T18:18:32.711Z,97598.22
2023-03-25T18:20:37.526Z,97612.00
2023-03-25T18:22:42.069Z,97610.78
2023-03-25T18:24:45.477Z,97614.94
2023-03-25T18:26:48.819Z,97620.03
2023-03-25T18:28:51.995Z,97623.63
2023-03-25T18:30:56.479Z,97618.72
2023-03-25T18:32:59.672Z,97613.38
2023-03-25T18:35:03.991Z,97611.19
2023-03-25T18:37:07.537Z,97615.72
2023-03-25T18:39:16.741Z,97613.56
2023-03-25T18:41:19.900Z,97607.50
2023-03-25T18:43:23.196Z,97615.22
2023-03-25T18:45:27.369Z,97613.00
2023-03-25T18:47:30.515Z,97615.41
2023-03-25T18:49:33.704Z,97626.44
2023-03-25T18:51:37.390Z,97620.03
2023-03-25T18:53:40.881Z,97627.41
2023-03-25T18:55:46.482Z,97629.34
2023-03-25T18:57:49.826Z,97636.91
2023-03-25T18:59:52.941Z,97631.22
2023-03-25T19:01:56.154Z,97622.94
2023-03-25T19:04:02.655Z,97634.22
2023-03-25T19:06:07.811Z,97629.50
2023-03-25T19:08:16.655Z,97637.69
2023-03-25T19:10:21.917Z,97635.44
2023-03-25T19:12:26.480Z,97637.09
2023-03-25T19:14:29.664Z,97643.00
2023-03-25T19:16:32.931Z,97642.19
2023-03-25T19:18:36.139Z,97638.75
2023-03-25T19:20:41.059Z,97638.38
2023-03-25T19:22:44.442Z,97640.03
2023-03-25T19:24:48.289Z,97640.28
2023-03-25T19:26:51.504Z,97648.94
2023-03-25T19:28:56.053Z,97651.78
2023-03-25T19:31:01.285Z,97647.19
2023-03-25T19:33:04.740Z,97650.28
2023-03-25T19:35:08.813Z,97643.38
2023-03-25T19:37:11.935Z,97650.50
2023-03-25T19:39:15.956Z,97649.56
2023-03-25T19:41:19.274Z,97648.16
2023-03-25T19:43:22.347Z,97655.25
2023-03-25T19:45:27.590Z,97654.09
2023-03-25T19:47:30.741Z,97665.69
2023-03-25T19:49:39.835Z,97668.78
2023-03-25T19:51:45.223Z,97668.66
2023-03-25T19:53:48.361Z,97682.88
2023-03-25T19:55:51.723Z,97691.06
2023-03-25T19:57:55.677Z,97694.88
2023-03-25T19:59:59.049Z,97693.69
2023-03-25T20:02:03.779Z,97693.47
2023-03-25T20:04:07.074Z,97682.91
2023-03-25T20:06:10.175Z,97685.16
2023-03-25T20:08:13.318Z,97686.78
2023-03-25T20:10:20.350Z,97681.47
2023-03-25T20:12:24.159Z,97688.25
2023-03-25T20:14:27.327Z,97676.59
2023-03-25T20:16:30.814Z,97671.03
2023-03-25T20:18:35.453Z,97683.97
2023-03-25T20:20:38.580Z,97687.53
2023-03-25T20:22:42.131Z,97693.47
2023-03-25T20:24:46.088Z,97685.97
2023-03-25T20:26:49.210Z,97691.78
2023-03-25T20:28:52.334Z,97695.84
2023-03-25T20:30:55.777Z,97686.91
2023-03-25T20:32:59.058Z,97680.75
2023-03-25T20:35:04.290Z,97674.81
2023-03-25T20:37:07.415Z,97679.44
2023-03-25T20:39:11.439Z,97671.84
2023-03-25T20:41:14.700Z,97673.28
2023-03-25T20:43:17.977Z,97681.59
2023-03-25T20:45:21.296Z,97681.00
2023-03-25T20:47:24.682Z,97679.19
2023-03-25T20:49:28.001Z,97675.31
2023-03-25T20:51:32.567Z,97676.59
2023-03-25T20:53:35.875Z,97670.22
2023-03-25T20:55:39.118Z,97675.44
2023-03-25T20:57:42.440Z,97671.59
2023-03-25T20:59:45.726Z,97673.75
2023-03-25T21:01:51.035Z,97673.88
2023-03-25T21:03:54.395Z,97679.72
2023-03-25T21:06:01.667Z,97677.56
2023-03-25T21:08:13.381Z,97679.69
2023-03-25T21:10:16.906Z,97682.44
2023-03-25T21:12:23.139Z,97685.97
2023-03-25T21:14:28.373Z,97674.47
2023-03-25T21:16:32.039Z,97679.47
2023-03-25T21:18:35.159Z,97686.44
2023-03-25T21:20:38.562Z,97686.22
2023-03-25T21:22:44.064Z,97693.56
2023-03-25T21:24:49.148Z,97686.22
2023-03-25T21:26:52.341Z,97682.06
2023-03-25T21:28:56.517Z,97683.72
2023-03-25T21:31:03.139Z,97679.94
2023-03-25T21:33:06.264Z,97683.25
2023-03-25T21:35:10.306Z,97675.44
2023-03-25T21:37:13.382Z,97673.41
2023-03-25T21:39:16.431Z,97673.16
2023-03-25T21:41:21.039Z,97671.28
2023-03-25T21:43:24.436Z,97672.81
2023-03-25T21:45:33.698Z,97681.13
2023-03-25T21:47:36.957Z,97687.88
2023-03-25T21:49:42.307Z,97691.47
2023-03-25T21:51:56.820Z,97686.59
2023-03-25T21:54:00.437Z,97684.44
2023-03-25T21:56:04.727Z,97684.81
2023-03-25T21:58:10.097Z,97681.34
2023-03-25T22:00:16.616Z,97680.25
2023-03-25T22:02:21.006Z,97678.72
2023-03-25T22:04:24.693Z,97668.28
2023-03-25T22:06:29.697Z,97676.25
2023-03-25T22:08:32.885Z,97673.97
2023-03-25T22:10:36.140Z,97676.81
2023-03-25T22:12:39.408Z,97677.75
2023-03-25T22:14:44.015Z,97671.94
2023-03-25T22:16:47.268Z,97675.72
2023-03-25T22:18:50.914Z,97684.00
2023-03-25T22:20:54.996Z,97682.72
2023-03-25T22:22:58.136Z,97684.16
2023-03-25T22:25:01.257Z,97679.44
2023-03-25T22:27:04.437Z,97669.00
2023-03-25T22:29:09.412Z,97676.81
2023-03-25T22:31:15.609Z,97681.00
2023-03-25T22:33:18.806Z,97681.56
2023-03-25T22:35:23.909Z,97684.66
2023-03-25T22:37:27.131Z,97689.75
2023-03-25T22:39:30.343Z,97691.06
2023-03-25T22:41:33.877Z,97699.38
2023-03-25T22:43:37.547Z,97721.69
2023-03-25T22:45:40.764Z,97732.00
2023-03-25T22:47:45.608Z,97734.00
2023-03-25T22:49:48.773Z,97734.69
2023-03-25T22:51:52.133Z,97721.41
2023-03-25T22:53:55.386Z,97710.38
2023-03-25T22:55:58.853Z,97704.66
2023-03-25T22:58:01.982Z,97694.91
2023-03-25T23:00:12.793Z,97696.22
2023-03-25T23:02:16.719Z,97698.44
2023-03-25T23:04:21.608Z,97704.69
2023-03-25T23:06:25.447Z,97704.16
2023-03-25T23:08:32.133Z,97702.41
2023-03-25T23:10:35.485Z,97692.91
2023-03-25T23:12:38.650Z,97693.63
2023-03-25T23:14:43.923Z,97688.41
2023-03-25T23:16:47.009Z,97677.63
2023-03-25T23:18:50.477Z,97678.06
2023-03-25T23:20:55.506Z,97675.44
2023-03-25T23:22:58.607Z,97673.72
2023-03-25T23:25:04.555Z,97670.81
2023-03-25T23:27:09.697Z,97667.56
2023-03-25T23:29:13.494Z,97676.44
2023-03-25T23:31:19.220Z,97663.22
2023-03-25T23:33:22.395Z,97656.50
2023-03-25T23:35:25.892Z,97666.94
2023-03-25T23:37:31.599Z,97666.94
2023-03-25T23:39:34.903Z,97670.91
2023-03-25T23:41:38.700Z,97674.44
2023-03-25T23:43:42.508Z,97670.41
2023-03-25T23:45:45.545Z,97672.06
2023-03-25T23:47:49.276Z,97660.09
2023-03-25T23:49:58.007Z,97674.56
2023-03-25T23:52:01.200Z,97663.53
2023-03-25T23:54:06.791Z,97661.59
2023-03-25T23:56:10.518Z,97663.50
2023-03-25T23:58:13.773Z,97662.16
